createdAt,value
2022-10-24T00:01:21.477Z,17.00
2022-10-24T00:03:49.370Z,17.00
2022-10-24T00:06:17.912Z,17.00
2022-10-24T00:08:45.423Z,17.00
2022-10-24T00:11:22.163Z,16.90
2022-10-24T00:13:50.988Z,16.90
2022-10-24T00:16:18.699Z,17.00
2022-10-24T00:18:46.124Z,17.00
2022-10-24T00:21:13.601Z,16.90
2022-10-24T00:23:41.114Z,17.10
2022-10-24T00:26:08.248Z,16.90
2022-10-24T00:28:36.579Z,16.90
2022-10-24T00:31:07.783Z,16.90
2022-10-24T00:33:35.065Z,16.90
2022-10-24T00:36:01.855Z,16.90
2022-10-24T00:38:32.371Z,16.90
2022-10-24T00:40:59.209Z,16.80
2022-10-24T00:43:27.575Z,16.80
2022-10-24T00:45:58.235Z,16.80
2022-10-24T00:48:32.483Z,16.70
2022-10-24T00:51:08.856Z,16.80
2022-10-24T00:53:43.387Z,16.70
2022-10-24T00:56:13.880Z,16.70
2022-10-24T00:58:43.983Z,16.70
2022-10-24T01:01:13.813Z,16.70
2022-10-24T01:03:40.821Z,16.70
2022-10-24T01:06:43.419Z,16.60
2022-10-24T01:09:28.665Z,16.60
2022-10-24T01:12:18.696Z,16.60
2022-10-24T01:14:53.183Z,16.60
2022-10-24T01:17:38.166Z,16.50
2022-10-24T01:20:18.189Z,16.50
2022-10-24T01:23:13.864Z,16.50
2022-10-24T01:26:10.546Z,16.50
2022-10-24T01:29:09.424Z,16.50
2022-10-24T01:31:48.575Z,16.40
2022-10-24T01:34:45.080Z,16.40
2022-10-24T01:37:28.123Z,16.40
2022-10-24T01:40:03.786Z,16.30
2022-10-24T01:42:32.392Z,16.40
2022-10-24T01:45:03.378Z,16.30
2022-10-24T01:47:39.252Z,16.30
2022-10-24T01:50:11.384Z,16.30
2022-10-24T01:52:43.592Z,16.30
2022-10-24T01:55:11.827Z,16.30
2022-10-24T01:57:39.639Z,16.20
2022-10-24T02:00:10.245Z,16.20
2022-10-24T02:02:44.272Z,16.20
2022-10-24T02:05:22.227Z,16.20
2022-10-24T02:07:54.528Z,16.20
2022-10-24T02:10:49.563Z,16.20
2022-10-24T02:13:36.517Z,16.10
2022-10-24T02:16:04.893Z,16.20
2022-10-24T02:18:33.665Z,16.10
2022-10-24T02:21:14.276Z,16.10
2022-10-24T02:23:56.280Z,16.00
2022-10-24T02:26:49.233Z,16.00
2022-10-24T02:29:26.591Z,16.00
2022-10-24T02:31:57.002Z,16.00
2022-10-24T02:34:28.876Z,16.00
2022-10-24T02:36:57.916Z,16.00
2022-10-24T02:39:26.436Z,16.00
2022-10-24T02:41:55.358Z,16.00
2022-10-24T02:44:24.618Z,15.90
2022-10-24T02:46:54.689Z,15.90
2022-10-24T02:49:21.823Z,15.90
2022-10-24T02:51:49.877Z,15.90
2022-10-24T02:54:17.360Z,15.80
2022-10-24T02:56:50.098Z,15.80
2022-10-24T02:59:17.143Z,15.80
2022-10-24T03:01:49.361Z,15.80
2022-10-24T03:04:16.812Z,15.80
2022-10-24T03:06:44.672Z,15.80
2022-10-24T03:09:11.580Z,15.80
2022-10-24T03:11:38.750Z,15.70
2022-10-24T03:14:05.653Z,15.70
2022-10-24T03:16:32.865Z,15.70
2022-10-24T03:18:59.704Z,15.70
2022-10-24T03:21:26.661Z,15.70
2022-10-24T03:23:53.829Z,15.70
2022-10-24T03:26:20.740Z,15.60
2022-10-24T03:28:48.097Z,15.60
2022-10-24T03:34:06.340Z,15.60
2022-10-24T03:36:33.154Z,15.50
2022-10-24T03:39:00.121Z,15.60
2022-10-24T03:41:27.111Z,15.50
2022-10-24T03:43:54.326Z,15.50
2022-10-24T03:46:24.899Z,15.40
2022-10-24T03:49:17.095Z,15.50
2022-10-24T03:51:43.914Z,15.40
2022-10-24T03:54:11.704Z,15.40
2022-10-24T03:56:44.572Z,15.30
2022-10-24T03:59:11.746Z,15.30
2022-10-24T04:01:38.892Z,15.30
2022-10-24T04:04:06.140Z,15.30
2022-10-24T04:06:36.354Z,15.30
2022-10-24T04:09:04.740Z,15.30
2022-10-24T04:11:32.002Z,15.30
2022-10-24T04:16:34.633Z,15.40
2022-10-24T04:19:02.264Z,15.30
2022-10-24T04:21:29.154Z,15.50
2022-10-24T04:23:56.403Z,15.30
2022-10-24T04:26:24.331Z,15.30
2022-10-24T04:28:51.427Z,15.30
2022-10-24T04:31:21.064Z,15.30
2022-10-24T04:33:51.216Z,15.30
2022-10-24T04:36:18.370Z,15.30
2022-10-24T04:38:45.172Z,15.30
2022-10-24T04:41:12.453Z,15.30
2022-10-24T04:43:40.624Z,15.30
2022-10-24T04:46:08.275Z,15.30
2022-10-24T04:48:35.319Z,15.30
2022-10-24T04:51:03.331Z,15.30
2022-10-24T04:53:30.454Z,15.30
2022-10-24T04:55:57.489Z,15.30
2022-10-24T04:58:24.309Z,15.30
2022-10-24T05:00:51.572Z,15.30
2022-10-24T05:03:19.852Z,15.30
2022-10-24T05:05:47.714Z,15.30
2022-10-24T05:08:15.459Z,15.30
2022-10-24T05:10:43.062Z,15.30
2022-10-24T05:13:10.300Z,15.30
2022-10-24T05:15:37.871Z,15.30
2022-10-24T05:18:05.631Z,15.60
2022-10-24T05:20:32.538Z,15.30
2022-10-24T05:22:59.665Z,15.40
2022-10-24T05:25:26.785Z,15.40
2022-10-24T05:27:53.703Z,15.40
2022-10-24T05:30:20.540Z,15.40
2022-10-24T05:32:48.313Z,15.40
2022-10-24T05:35:15.337Z,15.40
2022-10-24T05:37:44.207Z,15.50
2022-10-24T05:40:12.572Z,15.40
2022-10-24T05:42:39.985Z,15.50
2022-10-24T05:45:09.383Z,15.50
2022-10-24T05:47:36.937Z,15.50
2022-10-24T05:50:05.636Z,15.50
2022-10-24T05:52:32.824Z,15.50
2022-10-24T05:55:07.418Z,15.50
2022-10-24T05:57:37.221Z,15.50
2022-10-24T06:00:08.275Z,15.60
2022-10-24T06:02:42.336Z,15.50
2022-10-24T06:05:13.647Z,15.60
2022-10-24T06:07:44.519Z,15.60
2022-10-24T06:10:12.912Z,15.60
2022-10-24T06:12:40.216Z,15.60
2022-10-24T06:15:12.530Z,15.60
2022-10-24T06:17:39.571Z,15.60
2022-10-24T06:20:07.689Z,15.60
2022-10-24T06:22:34.542Z,15.70
2022-10-24T06:25:01.785Z,15.60
2022-10-24T06:27:29.011Z,15.60
2022-10-24T06:29:55.885Z,15.70
2022-10-24T06:32:22.876Z,15.70
2022-10-24T06:34:50.981Z,15.70
2022-10-24T06:37:18.466Z,15.70
2022-10-24T06:39:45.309Z,15.70
2022-10-24T06:42:12.343Z,15.80
2022-10-24T06:44:39.692Z,15.80
2022-10-24T06:47:07.019Z,15.80
2022-10-24T06:49:34.312Z,15.90
2022-10-24T06:52:01.216Z,15.90
2022-10-24T06:54:30.242Z,16.10
2022-10-24T06:56:57.913Z,15.90
2022-10-24T06:59:25.214Z,16.00
2022-10-24T07:01:52.180Z,16.10
2022-10-24T07:04:19.248Z,16.30
2022-10-24T07:06:46.414Z,16.30
2022-10-24T07:09:15.484Z,16.20
2022-10-24T07:11:44.099Z,16.20
2022-10-24T07:14:12.187Z,16.30
2022-10-24T07:16:40.140Z,16.30
2022-10-24T07:19:07.475Z,16.30
2022-10-24T07:21:34.527Z,16.40
2022-10-24T07:24:02.254Z,16.40
2022-10-24T07:26:30.809Z,16.50
2022-10-24T07:29:04.147Z,16.50
2022-10-24T07:31:34.796Z,16.60
2022-10-24T07:34:05.660Z,16.70
2022-10-24T07:36:32.652Z,16.80
2022-10-24T07:39:00.657Z,16.80
2022-10-24T07:41:30.477Z,16.90
2022-10-24T07:43:59.648Z,17.00
2022-10-24T07:46:26.678Z,17.10
2022-10-24T07:48:54.418Z,17.20
2022-10-24T07:51:22.206Z,17.30
2022-10-24T07:53:50.002Z,17.40
2022-10-24T07:56:22.693Z,17.40
2022-10-24T07:58:56.368Z,17.50
2022-10-24T08:01:29.702Z,17.80
2022-10-24T08:03:57.584Z,17.70
2022-10-24T08:06:30.531Z,17.80
2022-10-24T08:08:57.560Z,17.90
2022-10-24T08:11:27.537Z,18.00
2022-10-24T08:13:57.247Z,18.10
2022-10-24T08:16:25.744Z,18.40
2022-10-24T08:18:55.636Z,18.30
2022-10-24T08:21:24.066Z,18.50
2022-10-24T08:23:53.703Z,18.60
2022-10-24T08:26:24.730Z,18.70
2022-10-24T08:28:55.409Z,18.80
2022-10-24T08:31:25.370Z,18.90
2022-10-24T08:33:54.849Z,19.00
2022-10-24T08:36:29.967Z,19.20
2022-10-24T08:38:58.178Z,19.30
2022-10-24T08:41:29.728Z,19.40
2022-10-24T08:44:00.139Z,19.50
2022-10-24T08:46:52.118Z,19.60
2022-10-24T08:49:39.309Z,19.80
2022-10-24T08:52:38.267Z,19.90
2022-10-24T08:58:19.868Z,20.30
2022-10-24T09:00:49.792Z,20.40
2022-10-24T09:03:54.857Z,20.60
2022-10-24T09:06:28.865Z,20.70
2022-10-24T09:09:31.980Z,20.80
2022-10-24T09:12:04.473Z,21.00
2022-10-24T09:14:35.801Z,21.10
2022-10-24T09:17:32.441Z,21.20
2022-10-24T09:20:23.441Z,21.30
2022-10-24T09:22:50.710Z,21.40
2022-10-24T09:25:26.365Z,21.50
2022-10-24T09:27:53.258Z,21.60
2022-10-24T09:30:30.114Z,21.70
2022-10-24T09:33:18.393Z,21.80
2022-10-24T09:35:45.407Z,21.80
2022-10-24T09:38:37.282Z,21.80
2022-10-24T09:41:15.394Z,21.80
2022-10-24T09:43:48.042Z,21.90
2022-10-24T09:46:26.879Z,22.00
2022-10-24T09:48:57.952Z,21.90
2022-10-24T09:51:47.991Z,22.00
2022-10-24T09:54:20.998Z,22.10
2022-10-24T09:57:04.843Z,22.10
2022-10-24T09:59:37.443Z,22.10
2022-10-24T10:02:24.926Z,22.40
2022-10-24T10:05:04.074Z,22.10
2022-10-24T10:07:57.634Z,22.30
2022-10-24T10:10:37.642Z,22.40
2022-10-24T10:13:24.544Z,22.50
2022-10-24T10:16:04.102Z,22.40
2022-10-24T10:18:46.271Z,22.50
2022-10-24T10:21:21.307Z,22.60
2022-10-24T10:23:53.936Z,22.40
2022-10-24T10:26:28.245Z,22.60
2022-10-24T10:29:05.651Z,22.60
2022-10-24T10:32:02.140Z,22.60
2022-10-24T10:34:47.740Z,22.70
2022-10-24T10:37:32.529Z,22.60
2022-10-24T10:40:21.526Z,22.60
2022-10-24T10:43:02.797Z,22.50
2022-10-24T10:45:43.907Z,22.60
2022-10-24T10:48:36.679Z,22.50
2022-10-24T10:51:28.814Z,22.50
2022-10-24T10:54:25.878Z,22.50
2022-10-24T10:57:06.064Z,22.40
2022-10-24T10:59:44.637Z,22.20
2022-10-24T11:05:53.278Z,22.30
2022-10-24T11:08:53.822Z,22.30
2022-10-24T11:11:31.776Z,22.40
2022-10-24T11:14:19.216Z,22.40
2022-10-24T11:16:46.965Z,22.40
2022-10-24T11:19:40.993Z,22.50
2022-10-24T11:22:21.045Z,22.50
2022-10-24T11:25:48.244Z,22.60
2022-10-24T11:28:49.429Z,22.60
2022-10-24T11:31:32.951Z,22.60
2022-10-24T11:34:25.508Z,22.60
2022-10-24T11:37:32.119Z,22.60
2022-10-24T11:40:31.492Z,22.70
2022-10-24T11:43:18.515Z,22.70
2022-10-24T11:46:00.514Z,22.70
2022-10-24T11:48:53.156Z,22.70
2022-10-24T11:51:40.477Z,22.70
2022-10-24T11:54:26.791Z,22.70
2022-10-24T11:57:02.295Z,23.00
2022-10-24T11:59:30.862Z,22.80
2022-10-24T12:02:25.882Z,22.70
2022-10-24T12:04:59.287Z,22.80
2022-10-24T12:08:12.783Z,22.80
2022-10-24T12:11:05.861Z,22.80
2022-10-24T12:14:04.045Z,22.80
2022-10-24T12:17:48.283Z,22.90
2022-10-24T12:20:21.232Z,22.90
2022-10-24T12:23:23.542Z,22.90
2022-10-24T12:26:20.363Z,23.00
2022-10-24T12:29:02.732Z,23.00
2022-10-24T12:31:37.393Z,23.00
2022-10-24T12:34:19.429Z,23.20
2022-10-24T12:40:45.397Z,23.10
2022-10-24T12:43:14.298Z,23.10
2022-10-24T12:45:41.393Z,23.10
2022-10-24T12:48:36.813Z,23.10
2022-10-24T12:54:42.914Z,23.20
2022-10-24T12:57:12.497Z,23.40
2022-10-24T13:00:23.660Z,23.50
2022-10-24T13:03:08.091Z,23.60
2022-10-24T13:06:05.301Z,23.80
2022-10-24T13:08:56.530Z,23.90
2022-10-24T13:12:04.457Z,24.00
2022-10-24T13:15:23.775Z,24.00
2022-10-24T13:18:14.491Z,24.20
2022-10-24T13:20:46.412Z,24.40
2022-10-24T13:23:28.371Z,24.50
2022-10-24T13:25:57.239Z,24.70
2022-10-24T13:28:24.153Z,24.80
2022-10-24T13:31:17.488Z,25.10
2022-10-24T13:33:46.257Z,25.30
2022-10-24T13:36:18.123Z,25.70
2022-10-24T13:38:54.541Z,25.90
2022-10-24T13:41:27.197Z,26.10
2022-10-24T13:44:03.391Z,26.20
2022-10-24T13:46:43.356Z,26.50
2022-10-24T13:49:53.729Z,26.40
2022-10-24T13:52:37.365Z,26.40
2022-10-24T13:55:20.149Z,26.30
2022-10-24T13:58:05.406Z,26.30
2022-10-24T14:00:40.243Z,26.20
2022-10-24T14:03:24.153Z,26.10
2022-10-24T14:05:59.907Z,26.00
2022-10-24T14:08:31.525Z,25.90
2022-10-24T14:11:03.273Z,25.70
2022-10-24T14:13:34.698Z,25.60
2022-10-24T14:16:05.966Z,25.40
2022-10-24T14:18:33.962Z,25.20
2022-10-24T14:21:05.155Z,25.00
2022-10-24T14:23:36.321Z,24.90
2022-10-24T14:26:15.777Z,24.80
2022-10-24T14:28:54.675Z,24.60
2022-10-24T14:31:31.177Z,24.40
2022-10-24T14:33:58.659Z,24.30
2022-10-24T14:36:30.653Z,24.20
2022-10-24T14:39:01.099Z,24.00
2022-10-24T14:41:54.658Z,24.10
2022-10-24T14:44:22.830Z,24.00
2022-10-24T14:47:22.979Z,24.00
2022-10-24T14:49:50.060Z,23.80
2022-10-24T14:52:27.506Z,23.80
2022-10-24T14:55:23.445Z,23.70
2022-10-24T14:57:52.188Z,23.70
2022-10-24T15:00:25.744Z,23.70
2022-10-24T15:02:57.540Z,23.60
2022-10-24T15:05:29.276Z,23.50
2022-10-24T15:08:20.972Z,23.40
2022-10-24T15:10:49.420Z,23.40
2022-10-24T15:13:21.838Z,23.30
2022-10-24T15:15:56.769Z,23.20
2022-10-24T15:18:33.421Z,23.20
2022-10-24T15:21:07.035Z,23.10
2022-10-24T15:23:45.946Z,23.00
2022-10-24T15:26:23.668Z,22.90
2022-10-24T15:29:14.102Z,22.80
2022-10-24T15:31:44.529Z,22.70
2022-10-24T15:34:21.693Z,22.70
2022-10-24T15:36:51.385Z,22.60
2022-10-24T15:39:22.091Z,22.50
2022-10-24T15:41:49.346Z,22.50
2022-10-24T15:44:30.766Z,22.30
2022-10-24T15:46:57.974Z,22.20
2022-10-24T15:49:24.841Z,22.20
2022-10-24T15:51:52.088Z,22.00
2022-10-24T15:54:22.120Z,22.10
2022-10-24T15:56:50.225Z,21.70
2022-10-24T15:59:23.266Z,21.80
2022-10-24T16:01:55.908Z,21.80
2022-10-24T16:04:24.482Z,21.60
2022-10-24T16:06:54.185Z,21.60
2022-10-24T16:09:27.530Z,21.50
2022-10-24T16:12:19.476Z,21.50
2022-10-24T16:14:46.661Z,21.40
2022-10-24T16:17:13.505Z,21.40
2022-10-24T16:19:40.965Z,21.30
2022-10-24T16:22:09.334Z,21.20
2022-10-24T16:24:36.351Z,21.20
2022-10-24T16:27:03.490Z,21.10
2022-10-24T16:29:30.837Z,21.10
2022-10-24T16:31:58.163Z,21.00
2022-10-24T16:34:25.145Z,21.00
2022-10-24T16:36:55.791Z,21.00
2022-10-24T16:39:24.006Z,20.90
2022-10-24T16:41:55.303Z,20.90
2022-10-24T16:44:22.369Z,21.00
2022-10-24T16:46:49.172Z,20.90
2022-10-24T16:49:16.727Z,20.80
2022-10-24T16:51:45.178Z,20.80
2022-10-24T16:54:12.228Z,20.90
2022-10-24T16:56:39.108Z,20.80
2022-10-24T16:59:06.660Z,20.70
2022-10-24T17:01:34.263Z,20.70
2022-10-24T17:04:01.353Z,20.70
2022-10-24T17:06:28.438Z,20.70
2022-10-24T17:08:55.335Z,20.70
2022-10-24T17:14:09.841Z,20.70
2022-10-24T17:16:39.241Z,20.40
2022-10-24T17:19:15.676Z,20.50
2022-10-24T17:21:47.216Z,20.50
2022-10-24T17:24:17.143Z,20.40
2022-10-24T17:26:44.596Z,20.40
2022-10-24T17:29:32.478Z,20.40
2022-10-24T17:32:00.368Z,20.40
2022-10-24T17:34:28.584Z,20.30
2022-10-24T17:37:08.450Z,20.30
2022-10-24T17:39:48.422Z,20.30
2022-10-24T17:42:15.573Z,20.20
2022-10-24T17:44:44.026Z,20.20
2022-10-24T17:47:11.983Z,20.10
2022-10-24T17:49:38.907Z,20.10
2022-10-24T17:52:05.993Z,20.10
2022-10-24T17:54:33.069Z,20.10
2022-10-24T17:57:00.080Z,20.00
2022-10-24T17:59:30.277Z,20.00
2022-10-24T18:01:57.374Z,20.30
2022-10-24T18:04:24.485Z,20.10
2022-10-24T18:06:51.459Z,20.00
2022-10-24T18:09:18.519Z,20.00
2022-10-24T18:11:45.709Z,20.10
2022-10-24T18:14:12.948Z,20.00
2022-10-24T18:16:39.940Z,19.90
2022-10-24T18:19:07.421Z,19.90
2022-10-24T18:21:34.362Z,19.90
2022-10-24T18:24:02.065Z,19.80
2022-10-24T18:26:29.827Z,19.80
2022-10-24T18:28:58.318Z,19.80
2022-10-24T18:31:29.288Z,19.80
2022-10-24T18:34:02.493Z,19.80
2022-10-24T18:36:34.742Z,19.80
2022-10-24T18:39:02.043Z,19.80
2022-10-24T18:41:34.463Z,19.70
2022-10-24T18:44:26.039Z,19.80
2022-10-24T18:46:56.401Z,19.70
2022-10-24T18:49:24.209Z,19.60
2022-10-24T18:52:11.149Z,19.60
2022-10-24T18:55:18.048Z,19.60
2022-10-24T18:57:46.586Z,19.60
2022-10-24T19:00:31.978Z,19.50
2022-10-24T19:03:33.454Z,19.50
2022-10-24T19:06:28.356Z,19.50
2022-10-24T19:08:56.241Z,19.50
2022-10-24T19:11:24.853Z,19.50
2022-10-24T19:13:52.562Z,19.50
2022-10-24T19:16:28.703Z,19.50
2022-10-24T19:19:01.265Z,19.40
2022-10-24T19:21:28.517Z,19.40
2022-10-24T19:23:55.338Z,19.40
2022-10-24T19:26:23.244Z,19.40
2022-10-24T19:28:50.028Z,19.40
2022-10-24T19:31:17.045Z,19.40
2022-10-24T19:33:43.979Z,19.40
2022-10-24T19:36:14.433Z,19.30
2022-10-24T19:38:45.329Z,19.30
2022-10-24T19:41:12.701Z,19.30
2022-10-24T19:43:39.924Z,19.30
2022-10-24T19:46:19.298Z,19.30
2022-10-24T19:48:53.007Z,19.30
2022-10-24T19:51:21.182Z,19.20
2022-10-24T19:53:49.531Z,19.20
2022-10-24T19:56:25.125Z,19.10
2022-10-24T19:58:53.578Z,19.20
2022-10-24T20:01:25.118Z,19.10
2022-10-24T20:03:52.626Z,19.10
2022-10-24T20:06:19.719Z,19.10
2022-10-24T20:08:48.309Z,19.00
2022-10-24T20:11:16.506Z,19.00
2022-10-24T20:13:44.005Z,19.00
2022-10-24T20:16:11.971Z,19.00
2022-10-24T20:21:17.796Z,18.90
2022-10-24T20:23:47.796Z,19.00
2022-10-24T20:26:26.016Z,18.90
2022-10-24T20:28:55.208Z,18.80
2022-10-24T20:31:28.999Z,18.80
2022-10-24T20:34:06.783Z,18.80
2022-10-24T20:36:37.401Z,18.80
2022-10-24T20:39:06.528Z,18.80
2022-10-24T20:41:33.744Z,18.80
2022-10-24T20:44:02.352Z,18.70
2022-10-24T20:46:29.592Z,18.70
2022-10-24T20:48:57.126Z,18.70
2022-10-24T20:51:24.414Z,18.70
2022-10-24T20:53:52.088Z,18.70
2022-10-24T20:56:22.761Z,18.70
2022-10-24T20:58:51.355Z,18.60
2022-10-24T21:01:25.357Z,18.60
2022-10-24T21:03:53.550Z,18.60
2022-10-24T21:06:23.037Z,18.60
2022-10-24T21:08:52.705Z,18.50
2022-10-24T21:11:26.501Z,18.50
2022-10-24T21:13:57.593Z,18.60
2022-10-24T21:16:25.777Z,18.50
2022-10-24T21:18:53.349Z,18.50
2022-10-24T21:21:21.760Z,18.50
2022-10-24T21:24:00.798Z,18.50
2022-10-24T21:26:31.235Z,18.50
2022-10-24T21:29:08.559Z,18.40
2022-10-24T21:31:41.889Z,18.40
2022-10-24T21:34:09.130Z,18.40
2022-10-24T21:36:36.009Z,18.40
2022-10-24T21:39:03.025Z,18.40
2022-10-24T21:41:30.105Z,18.40
2022-10-24T21:43:58.313Z,18.30
2022-10-24T21:46:29.119Z,18.30
2022-10-24T21:48:56.513Z,18.30
2022-10-24T21:51:29.477Z,18.30
2022-10-24T21:53:59.879Z,18.20
2022-10-24T21:56:31.094Z,18.10
2022-10-24T21:59:04.750Z,18.40
2022-10-24T22:01:35.683Z,18.20
2022-10-24T22:04:03.713Z,18.10
2022-10-24T22:06:32.389Z,18.10
2022-10-24T22:09:00.355Z,18.10
2022-10-24T22:11:31.302Z,18.10
2022-10-24T22:13:58.861Z,18.00
2022-10-24T22:16:28.888Z,18.00
2022-10-24T22:18:57.175Z,18.00
2022-10-24T22:21:39.989Z,17.90
2022-10-24T22:24:16.943Z,17.90
2022-10-24T22:26:44.650Z,17.90
2022-10-24T22:29:16.368Z,17.80
2022-10-24T22:31:44.223Z,17.80
2022-10-24T22:34:20.464Z,17.90
2022-10-24T22:37:05.430Z,17.90
2022-10-24T22:39:33.015Z,17.90
2022-10-24T22:42:00.700Z,17.90
2022-10-24T22:44:27.871Z,17.90
2022-10-24T22:47:05.460Z,17.90
2022-10-24T22:50:07.712Z,17.90
2022-10-24T22:52:34.941Z,17.90
2022-10-24T22:55:03.969Z,17.90
2022-10-24T22:57:31.785Z,17.90
2022-10-24T22:59:58.859Z,17.90
2022-10-24T23:02:52.021Z,17.80
2022-10-24T23:05:37.788Z,17.80
2022-10-24T23:08:07.401Z,17.80
2022-10-24T23:10:36.535Z,17.80
2022-10-24T23:13:04.104Z,17.80
2022-10-24T23:15:31.430Z,17.70
2022-10-24T23:17:58.574Z,17.70
2022-10-24T23:20:45.979Z,17.70
2022-10-24T23:23:28.378Z,17.70
2022-10-24T23:26:23.950Z,17.60
2022-10-24T23:29:26.643Z,17.60
2022-10-24T23:31:54.041Z,17.60
2022-10-24T23:34:21.401Z,17.50
2022-10-24T23:36:50.184Z,17.50
2022-10-24T23:39:17.491Z,17.50
2022-10-24T23:41:45.089Z,17.50
2022-10-24T23:44:12.206Z,17.40
2022-10-24T23:46:49.035Z,17.40
2022-10-24T23:49:34.083Z,17.40
2022-10-24T23:52:27.140Z,17.30
2022-10-24T23:54:54.800Z,17.30
2022-10-24T23:57:21.892Z,17.30
2022-10-24T23:59:48.899Z,17.30
